Alta Loma, CA (91701)

3:38 PM PDT on August 31, 2015 (GMT -0700)
Amethyst at Manzanita | | Change Station
CLOSE
Current Station
Personal Weather Station
Location: Alta Loma, CA
Elevation: 1775 ft
Nearby Weather Stations

Elev 1775 ft 34.15 °N, 117.60 °W | Updated 10 seconds ago

Clear
Clear
86.5 °F
Feels Like 85 °F
N
4.0
Wind Variable Wind from South
Gusts 11.0 mph

Today
High -- | Low -- °F
--% Chance of Precip.
Yesterday
High -- | Low -- °F
Precip. -- in
6:23 AM 7:17 PM
Waning Gibbous, 93% visible
Pressure 29.81 in
Visibility 10.0 miles
Clouds Few 20000 ft
Heat Index 85 °F
Dew Point 54 °F
Humidity 33%
Rainfall in
Snow Depth Not available.
UV 8 out of 12
Pollen 7.20 out of 12
Air Quality Not available.
Flu Activity Not available.
METAR KONT 312153Z 24011G16KT 10SM FEW200 32/11 A2986 RMK AO2 SLP093 T03220111
Pressure 29.81 in
Visibility 10.0 miles
Clouds Few 20000 ft
Heat Index 85 °F
Dew Point 54 °F
Humidity 33%
Rainfall in
Snow Depth Not available.
UV 8 out of 12
Pollen 7.20 out of 12
Air Quality Not available.
Flu Activity Not available.
METAR KONT 312153Z 24011G16KT 10SM FEW200 32/11 A2986 RMK AO2 SLP093 T03220111

10-Day Weather Forecast

×

Almanac

Astronomy

Aug. 31, 2015 Rise Set
Actual Time
Civil Twilight
Nautical Twilight
Astronomical Twilight
Moon
Length of Visible Light
Length of Day
Tomorrow will be .
, % of the Moon is Illuminated

Today's Extremes

State Highs State Lows

Community

WunderPhotos

Upload Photos

1,851,390 photos uploaded!

WunderBlogs® & News

Nearby

Air Quality

  Air Quality AQ Index Pollutant
Not available.

Snow Depth

Station Depth Elevation

Earthquake Activity

City Distance Mag. Time & Date
Minimum magnitude displayed is 2.5.

Coastal Water Temperatures

Place Temperature

Stations

Nearby Weather Stations

Station Location Temp. Windchill Dew Point Humidity Wind Precip. Elev Updated Type